KBVO

Bartlesville Municipal Airport

Bartlesville, Oklahoma, USA
KBVO 182330Z 1900/1924 14010KT P6SM VCSH OVC035 TEMPO 1903/1905 5SM -TSRA BR BKN012CB FM190500 35018G28KT 3SM -RAPL OVC012 FM190800 35022G32KT 3SM -SN OVC012 FM191100 35023G30KT P6SM OVC015 FM191800 35015G22KT P6SM BKN050
Issued Valid From Valid To
Jan-18 @ 23:30 UTC
(3 hours ago)
Jan-19 @ 00:00 UTC
(2 hours ago)
Jan-20 @ 00:00 UTC
(in 22 hours)
Jan-19 @ 00:00 to Jan-19 @ 05:00
KBVO 182330Z 1900/1924 14010KT P6SM VCSH OVC035
Wind Visibility Clouds
140° at 10 knots Greater than 6 miles
  • Overcast at 3,500' AGL
Temporary Jan-19 @ 03:00 to Jan-19 @ 05:00
TEMPO 1903/1905 5SM -TSRA BR BKN012CB
Visibility Clouds Conditions
5 miles
  • Broken at 1,200' AGL
  • Light Thunderstorm
  • Light Rain
  • Mist
From Jan-19 @ 05:00 to Jan-19 @ 08:00
FM190500 35018G28KT 3SM -RAPL OVC012
Wind Visibility Clouds Conditions
350° at 18 knots
 Gusting to 28 knots
3 miles
  • Overcast at 1,200' AGL
  • Light Rain
From Jan-19 @ 08:00 to Jan-19 @ 11:00
FM190800 35022G32KT 3SM -SN OVC012
Wind Visibility Clouds Conditions
350° at 22 knots
 Gusting to 32 knots
3 miles
  • Overcast at 1,200' AGL
  • Light Snow
From Jan-19 @ 11:00 to Jan-19 @ 18:00
FM191100 35023G30KT P6SM OVC015
Wind Visibility Clouds
350° at 23 knots
 Gusting to 30 knots
Greater than 6 miles
  • Overcast at 1,500' AGL
From Jan-19 @ 18:00 to Jan-20 @ 00:00
FM191800 35015G22KT P6SM BKN050
Wind Visibility Clouds
350° at 15 knots
 Gusting to 22 knots
Greater than 6 miles
  • Broken at 5,000' AGL
KBVO 182330Z 1900/1924 14010KT P6SM VCSH OVC035 TEMPO 1903/1905 5SM -TSRA BR BKN012CB FM190500 35018G28KT 3SM -RAPL OVC012 FM190800 35022G32KT 3SM -SN OVC012 FM191100 35023G30KT P6SM OVC015 FM191800 35015G22KT P6SM BKN050
Issued Jan-18 @ 23:30 UTC
(3 hours ago)
Valid From Jan-19 @ 00:00 UTC
(2 hours ago)
Valid To Jan-20 @ 00:00 UTC
(in 22 hours)
Jan-19 @ 00:00 - Jan-19 @ 05:00
Wind Visibility
140° at 10 knots Greater than 6 miles
Clouds
  • Overcast at 3,500' AGL
Temporary Jan-19 @ 03:00 - Jan-19 @ 05:00
Clouds
  • Broken at 1,200' AGL
Conditions
  • Light Thunderstorm
  • Light Rain
  • Mist
From Jan-19 @ 05:00 - Jan-19 @ 08:00
Wind Visibility
350° at 18 knots
 Gusting to 28 knots
3 miles
Clouds
  • Overcast at 1,200' AGL
Conditions
  • Light Rain
From Jan-19 @ 08:00 - Jan-19 @ 11:00
Wind Visibility
350° at 22 knots
 Gusting to 32 knots
3 miles
Clouds
  • Overcast at 1,200' AGL
Conditions
  • Light Snow
From Jan-19 @ 11:00 - Jan-19 @ 18:00
Wind Visibility
350° at 23 knots
 Gusting to 30 knots
Greater than 6 miles
Clouds
  • Overcast at 1,500' AGL
From Jan-19 @ 18:00 - Jan-20 @ 00:00
Wind Visibility
350° at 15 knots
 Gusting to 22 knots
Greater than 6 miles
Clouds
  • Broken at 5,000' AGL